Time;durP1;ratioP1;P1;durP2;ratioP2;P2;SDS_P1;SDS_P2;PMS_P1;PMS_P2;Temp;Humidity;BMP_temperature;BMP_pressure;BME280_temperature;BME280_humidity;BME280_pressure;Samples;Min_cycle;Max_cycle;Signal;HPM_P1;HPM_P2
2021/01/30 06:01:33;;;;;;;;;;;;;;;;;;5141763;27;20339;-56
2021/01/30 06:04:01;;;;;;;8.55;1.42;;;;;;;;;;5148034;27;19952;-53
2021/01/30 06:06:29;;;;;;;5.80;1.48;;;;;;;;;;5134639;27;20368;-52
2021/01/30 06:08:56;;;;;;;1.38;0.80;;;;;;;;;;5134418;27;20036;-52
2021/01/30 06:11:22;;;;;;;0.00;0.00;;;;;;;;;;5134738;27;20480;-51
2021/01/30 06:13:51;;;;;;;0.10;0.10;;;;;;;;;;5131915;27;20551;-52
2021/01/30 06:16:34;;;;;;;2.65;0.75;;;;;;;;;;5132099;27;20494;-56
2021/01/30 06:19:09;;;;;;;0.08;0.08;;;;;;;;;;5134436;27;20586;-55
2021/01/30 06:21:35;;;;;;;53.33;4.32;;;;;;;;;;5134606;27;20031;-55
2021/01/30 06:24:02;;;;;;;0.00;0.00;;;;;;;;;;5134193;27;20019;-52
2021/01/30 06:26:29;;;;;;;5.50;0.90;;;;;;;;;;5134232;27;20023;-54
2021/01/30 06:29:00;;;;;;;3.08;0.73;;;;;;;;;;5132628;27;22063;-54
2021/01/30 06:31:32;;;;;;;0.00;0.00;;;;;;;;;;5146717;27;20034;-56
2021/01/30 06:34:03;;;;;;;1.38;0.52;;;;;;;;;;5146765;27;20550;-57
2021/01/30 06:36:33;;;;;;;0.45;0.45;;;;;;;;;;5145018;27;20037;-51
2021/01/30 06:39:07;;;;;;;0.00;0.00;;;;;;;;;;5145121;27;20071;-55
2021/01/30 06:41:33;;;;;;;0.00;0.00;;;;;;;;;;5125455;27;20015;-52
2021/01/30 06:44:18;;;;;;;5.18;2.50;;;;;;;;;;5147015;27;20026;-57
2021/01/30 06:47:03;;;;;;;9.75;1.38;;;;;;;;;;5146894;27;20033;-55
2021/01/30 06:49:33;;;;;;;11.05;2.58;;;;;;;;;;5146255;27;20035;-53
2021/01/30 06:52:06;;;;;;;5.32;1.15;;;;;;;;;;5146873;27;20027;-53
2021/01/30 06:54:33;;;;;;;5.40;1.65;;;;;;;;;;5145345;27;20027;-55
2021/01/30 06:57:08;;;;;;;9.80;0.75;;;;;;;;;;5144708;27;20054;-53
2021/01/30 06:59:36;;;;;;;3.72;1.35;;;;;;;;;;5144859;27;20043;-52
2021/01/30 07:02:10;;;;;;;0.55;0.55;;;;;;;;;;5135365;27;20023;-55
2021/01/30 07:04:51;;;;;;;4.10;2.05;;;;;;;;;;5130717;27;20436;-54
2021/01/30 07:07:22;;;;;;;13.85;2.95;;;;;;;;;;5131569;27;20085;-54
2021/01/30 07:10:03;;;;;;;4.40;0.47;;;;;;;;;;5131688;27;20035;-56
2021/01/30 07:12:35;;;;;;;0.30;0.30;;;;;;;;;;5131666;27;20065;-55
2021/01/30 07:15:22;;;;;;;1.52;0.52;;;;;;;;;;5130978;27;20035;-55
2021/01/30 07:18:07;;;;;;;7.93;3.30;;;;;;;;;;5130361;27;20027;-57
2021/01/30 07:20:50;;;;;;;2.17;0.63;;;;;;;;;;5128381;27;20031;-53
2021/01/30 07:23:16;;;;;;;9.93;0.50;;;;;;;;;;5137396;27;20482;-54
2021/01/30 07:25:54;;;;;;;0.10;0.10;;;;;;;;;;5130593;27;20030;-54
2021/01/30 07:28:24;;;;;;;1.45;0.47;;;;;;;;;;5110535;27;20023;-53
2021/01/30 07:30:55;;;;;;;0.32;0.32;;;;;;;;;;5132298;27;20096;-53
2021/01/30 07:33:25;;;;;;;5.07;1.10;;;;;;;;;;5129581;27;20051;-54
2021/01/30 07:35:58;;;;;;;2.10;0.35;;;;;;;;;;5127301;27;20029;-53
2021/01/30 07:38:29;;;;;;;0.65;0.45;;;;;;;;;;5130039;27;20110;-52
2021/01/30 07:41:14;;;;;;;0.25;0.25;;;;;;;;;;5129956;27;20029;-52
2021/01/30 07:43:40;;;;;;;;;;;;;;;;;;5129383;27;20027;-51
2021/01/30 07:46:06;;;;;;;;;;;;;;;;;;5132211;27;19913;-51
2021/01/30 07:48:32;;;;;;;;;;;;;;;;;;5130628;27;20350;-53
2021/01/30 07:51:20;;;;;;;6.22;1.67;;;;;;;;;;5130076;27;19915;-54
2021/01/30 07:53:46;;;;;;;1.60;1.27;;;;;;;;;;5129834;27;20438;-51
2021/01/30 07:56:18;;;;;;;6.03;0.98;;;;;;;;;;5130282;27;20399;-55
2021/01/30 07:58:50;;;;;;;8.50;0.82;;;;;;;;;;5129969;27;20039;-51
2021/01/30 08:01:29;;;;;;;3.95;0.90;;;;;;;;;;5128078;27;20035;-55
2021/01/30 08:03:55;;;;;;;0.80;0.65;;;;;;;;;;5131016;27;20415;-52
2021/01/30 08:06:33;;;;;;;10.35;3.47;;;;;;;;;;5129866;27;20026;-52
2021/01/30 08:09:02;;;;;;;0.30;0.08;;;;;;;;;;5128743;27;20072;-52
2021/01/30 08:11:51;;;;;;;1.92;0.75;;;;;;;;;;5129354;27;20084;-53
2021/01/30 08:14:26;;;;;;;0.75;0.75;;;;;;;;;;5127128;27;20522;-52
2021/01/30 08:17:01;;;;;;;11.20;1.48;;;;;;;;;;5129745;27;20019;-56
2021/01/30 08:19:42;;;;;;;8.73;2.75;;;;;;;;;;5130274;27;20226;-53
2021/01/30 08:22:35;;;;;;;5.15;1.33;;;;;;;;;;5128657;27;20027;-52
2021/01/30 08:25:06;;;;;;;6.35;1.48;;;;;;;;;;5109450;27;20043;-55
2021/01/30 08:27:36;;;;;;;23.17;1.45;;;;;;;;;;5132280;27;20027;-53
2021/01/30 08:30:06;;;;;;;2.88;0.90;;;;;;;;;;5129155;27;20039;-53
2021/01/30 08:32:36;;;;;;;14.00;2.85;;;;;;;;;;5130632;27;20098;-55
2021/01/30 08:35:20;;;;;;;2.22;0.25;;;;;;;;;;5130410;27;20080;-53
2021/01/30 08:38:07;;;;;;;0.30;0.10;;;;;;;;;;5124133;27;20019;-52
2021/01/30 08:41:06;;;;;;;0.77;0.77;;;;;;;;;;5129013;27;20027;-56
2021/01/30 08:43:41;;;;;;;0.00;0.00;;;;;;;;;;5083591;28;20028;-56
2021/01/30 08:46:26;;;;;;;0.00;0.00;;;;;;;;;;5077090;28;20074;-54
2021/01/30 08:49:10;;;;;;;0.55;0.55;;;;;;;;;;5082020;28;20032;-53
2021/01/30 08:51:36;;;;;;;10.95;3.20;;;;;;;;;;5078910;28;20090;-52
2021/01/30 08:54:21;;;;;;;0.70;0.70;;;;;;;;;;5080414;28;20484;-53
2021/01/30 08:56:49;;;;;;;5.85;3.85;;;;;;;;;;5078311;28;20519;-52
2021/01/30 08:59:34;;;;;;;0.10;0.10;;;;;;;;;;5081084;28;20421;-51
2021/01/30 09:02:01;;;;;;;2.85;0.93;;;;;;;;;;5075950;28;20447;-55
2021/01/30 09:04:42;;;;;;;0.00;0.00;;;;;;;;;;5071778;28;20024;-55
2021/01/30 09:07:08;;;;;;;4.88;1.30;;;;;;;;;;5088234;28;20065;-53
2021/01/30 09:09:54;;;;;;;1.13;0.13;;;;;;;;;;5087485;28;20118;-53
2021/01/30 09:12:54;;;;;;;2.30;0.80;;;;;;;;;;5077020;28;20135;-51
2021/01/30 09:15:41;;;;;;;0.10;0.10;;;;;;;;;;5008730;28;20500;-54
2021/01/30 09:18:16;;;;;;;4.82;1.75;;;;;;;;;;5010927;28;20104;-51
2021/01/30 09:21:05;;;;;;;1.85;1.25;;;;;;;;;;5021825;28;20112;-51
2021/01/30 09:23:34;;;;;;;2.88;0.73;;;;;;;;;;5024079;28;20048;-51
2021/01/30 09:26:03;;;;;;;0.10;0.10;;;;;;;;;;5026868;28;20506;-54
2021/01/30 09:28:31;;;;;;;0.13;0.08;;;;;;;;;;5026072;28;20029;-60
2021/01/30 09:31:05;;;;;;;0.10;0.03;;;;;;;;;;5036976;28;20054;-54
2021/01/30 09:33:33;;;;;;;1.70;1.60;;;;;;;;;;5036583;28;20086;-60
2021/01/30 09:36:07;;;;;;;4.03;1.38;;;;;;;;;;5033874;28;20033;-58
2021/01/30 09:38:36;;;;;;;2.38;0.20;;;;;;;;;;5035223;28;20057;-56
2021/01/30 09:41:09;;;;;;;3.75;0.95;;;;;;;;;;5026760;28;20065;-57
2021/01/30 09:43:35;;;;;;;1.02;0.35;;;;;;;;;;5011453;28;20121;-52
2021/01/30 09:46:04;;;;;;;0.73;0.73;;;;;;;;;;5038779;28;20037;-56
2021/01/30 09:48:30;;;;;;;8.82;0.65;;;;;;;;;;5026999;28;20033;-56
2021/01/30 09:50:59;;;;;;;6.32;1.30;;;;;;;;;;5080782;28;20043;-61
2021/01/30 09:53:31;;;;;;;0.28;0.20;;;;;;;;;;5126712;28;20535;-53
2021/01/30 09:56:11;;;;;;;0.00;0.00;;;;;;;;;;5128837;28;20142;-60
2021/01/30 09:58:39;;;;;;;0.75;0.70;;;;;;;;;;5111784;28;20019;-53
2021/01/30 10:01:11;;;;;;;0.93;0.85;;;;;;;;;;5131269;28;20416;-61
2021/01/30 10:03:41;;;;;;;0.13;0.10;;;;;;;;;;5130924;28;20035;-57
2021/01/30 10:06:15;;;;;;;0.00;0.00;;;;;;;;;;5124274;28;20039;-57
2021/01/30 10:08:42;;;;;;;3.40;0.22;;;;;;;;;;5123676;28;20019;-57
2021/01/30 10:11:10;;;;;;;0.00;0.00;;;;;;;;;;5102739;28;20039;-58
2021/01/30 10:13:37;;;;;;;1.85;0.63;;;;;;;;;;5124447;28;20089;-58
2021/01/30 10:16:04;;;;;;;0.98;0.90;;;;;;;;;;5115601;28;20059;-57
2021/01/30 10:18:35;;;;;;;0.35;0.13;;;;;;;;;;5124051;28;20031;-58
2021/01/30 10:21:02;;;;;;;0.00;0.00;;;;;;;;;;5122092;28;20019;-58
2021/01/30 10:23:30;;;;;;;3.17;0.88;;;;;;;;;;5121619;28;20039;-53
2021/01/30 10:26:09;;;;;;;1.38;0.55;;;;;;;;;;5124781;28;20502;-58
2021/01/30 10:28:42;;;;;;;1.50;0.52;;;;;;;;;;5120745;28;20027;-56
2021/01/30 10:31:08;;;;;;;3.10;0.22;;;;;;;;;;5124417;28;20035;-57
2021/01/30 10:33:35;;;;;;;2.13;0.17;;;;;;;;;;5123374;28;20042;-55
2021/01/30 10:36:01;;;;;;;0.65;0.15;;;;;;;;;;5120646;27;20031;-58
2021/01/30 10:38:30;;;;;;;0.70;0.10;;;;;;;;;;5123621;27;20033;-56
2021/01/30 10:40:56;;;;;;;0.17;0.13;;;;;;;;;;5124405;27;20546;-57
2021/01/30 10:43:27;;;;;;;0.25;0.13;;;;;;;;;;5129884;27;20062;-58
2021/01/30 10:45:54;;;;;;;0.52;0.20;;;;;;;;;;5126668;27;20118;-56
2021/01/30 10:48:22;;;;;;;0.00;0.00;;;;;;;;;;5122882;27;20054;-57
2021/01/30 10:50:48;;;;;;;0.30;0.10;;;;;;;;;;5124800;27;20073;-57
2021/01/30 10:53:35;;;;;;;0.43;0.43;;;;;;;;;;5121446;27;20035;-56
2021/01/30 10:56:12;;;;;;;1.02;0.20;;;;;;;;;;5116256;27;20088;-56
2021/01/30 10:58:39;;;;;;;1.17;0.10;;;;;;;;;;5123365;27;20489;-56
2021/01/30 11:01:05;;;;;;;0.30;0.00;;;;;;;;;;5128170;27;20058;-58
2021/01/30 11:03:51;;;;;;;0.00;0.00;;;;;;;;;;5120932;27;20024;-57
2021/01/30 11:06:53;;;;;;;0.70;0.25;;;;;;;;;;5118997;27;20053;-58
2021/01/30 11:09:22;;;;;;;0.00;0.00;;;;;;;;;;5060501;28;20036;-58
2021/01/30 11:11:49;;;;;;;0.13;0.10;;;;;;;;;;5062962;28;20032;-58
2021/01/30 11:14:18;;;;;;;8.02;1.35;;;;;;;;;;5058200;28;20036;-57
2021/01/30 11:16:44;;;;;;;1.55;0.08;;;;;;;;;;5055898;28;20459;-55
2021/01/30 11:19:37;;;;;;;0.10;0.10;;;;;;;;;;5054038;28;20033;-58
2021/01/30 11:22:12;;;;;;;0.00;0.00;;;;;;;;;;5064624;28;20036;-58
2021/01/30 11:24:47;;;;;;;0.17;0.17;;;;;;;;;;5070282;28;20457;-57
2021/01/30 11:27:32;;;;;;;0.00;0.00;;;;;;;;;;5061356;28;20094;-57
2021/01/30 11:29:58;;;;;;;0.00;0.00;;;;;;;;;;5059035;28;20052;-58
2021/01/30 11:32:26;;;;;;;0.00;0.00;;;;;;;;;;5040327;28;20555;-57
2021/01/30 11:34:59;;;;;;;3.45;0.68;;;;;;;;;;5070251;28;20029;-54
2021/01/30 11:37:26;;;;;;;0.00;0.00;;;;;;;;;;5069993;28;20098;-56
2021/01/30 11:39:52;;;;;;;0.20;0.00;;;;;;;;;;5064981;28;20110;-57
2021/01/30 11:42:19;;;;;;;0.00;0.00;;;;;;;;;;5063999;28;20604;-58
2021/01/30 11:44:46;;;;;;;0.10;0.00;;;;;;;;;;5123533;27;20023;-59
2021/01/30 11:47:13;;;;;;;0.00;0.00;;;;;;;;;;5130590;27;20031;-58
2021/01/30 11:49:39;;;;;;;1.25;0.88;;;;;;;;;;5131623;27;20019;-58
2021/01/30 11:52:05;;;;;;;0.35;0.20;;;;;;;;;;5133434;27;20023;-58
2021/01/30 11:54:31;;;;;;;12.55;0.88;;;;;;;;;;5132153;27;20496;-58
2021/01/30 11:56:57;;;;;;;2.58;0.35;;;;;;;;;;5130221;27;20034;-57
2021/01/30 11:59:23;;;;;;;6.22;3.33;;;;;;;;;;5130190;27;20388;-57
2021/01/30 12:01:49;;;;;;;1.75;0.25;;;;;;;;;;5128806;27;20027;-57
2021/01/30 12:04:16;;;;;;;1.67;1.45;;;;;;;;;;5131095;27;20033;-57
2021/01/30 12:06:42;;;;;;;1.80;1.10;;;;;;;;;;5130300;27;20376;-60
2021/01/30 12:09:08;;;;;;;4.10;0.38;;;;;;;;;;5130467;27;20023;-60
2021/01/30 12:11:34;;;;;;;0.00;0.00;;;;;;;;;;5130472;27;20037;-60
2021/01/30 12:14:00;;;;;;;2.83;0.28;;;;;;;;;;5130546;27;20121;-60
2021/01/30 12:16:27;;;;;;;0.80;0.30;;;;;;;;;;5129490;27;20042;-59
2021/01/30 12:18:53;;;;;;;1.95;0.52;;;;;;;;;;5132124;27;20019;-60
2021/01/30 12:21:19;;;;;;;1.20;0.17;;;;;;;;;;5130520;27;20063;-60
2021/01/30 12:23:45;;;;;;;0.40;0.20;;;;;;;;;;5129133;27;20015;-56
2021/01/30 12:26:13;;;;;;;6.35;1.58;;;;;;;;;;5129971;27;20015;-56
2021/01/30 12:28:39;;;;;;;2.53;0.70;;;;;;;;;;5130700;27;20021;-55
2021/01/30 12:31:06;;;;;;;2.75;0.93;;;;;;;;;;5131600;27;20100;-51
2021/01/30 12:33:32;;;;;;;0.82;0.40;;;;;;;;;;5130019;27;20064;-55
2021/01/30 12:35:58;;;;;;;1.95;0.13;;;;;;;;;;5129984;27;20126;-52
2021/01/30 12:38:27;;;;;;;0.25;0.25;;;;;;;;;;5130029;27;20058;-53
2021/01/30 12:40:53;;;;;;;0.45;0.30;;;;;;;;;;5130413;27;20030;-52
2021/01/30 12:43:20;;;;;;;2.35;0.47;;;;;;;;;;5131695;27;20108;-52
2021/01/30 12:45:47;;;;;;;2.00;0.93;;;;;;;;;;5131354;27;20011;-52
2021/01/30 12:48:13;;;;;;;7.47;1.08;;;;;;;;;;5130624;27;20066;-52
2021/01/30 12:50:39;;;;;;;1.95;0.35;;;;;;;;;;5130047;27;20491;-51
2021/01/30 12:53:07;;;;;;;0.03;0.03;;;;;;;;;;5112059;27;20399;-52
2021/01/30 12:55:34;;;;;;;4.32;1.15;;;;;;;;;;5125185;27;20020;-55
2021/01/30 12:58:09;;;;;;;0.73;0.30;;;;;;;;;;5129735;27;20023;-54
2021/01/30 13:00:35;;;;;;;8.68;1.75;;;;;;;;;;5116641;27;20100;-57
2021/01/30 13:03:02;;;;;;;1.77;1.00;;;;;;;;;;5118731;27;20614;-59
2021/01/30 13:05:28;;;;;;;0.13;0.10;;;;;;;;;;5124131;27;20397;-59
2021/01/30 13:07:54;;;;;;;2.35;0.55;;;;;;;;;;5128260;27;20518;-55
2021/01/30 13:10:21;;;;;;;1.15;0.13;;;;;;;;;;5114294;27;20075;-55
2021/01/30 13:12:47;;;;;;;0.20;0.20;;;;;;;;;;5130041;27;20015;-51
2021/01/30 13:15:14;;;;;;;0.00;0.00;;;;;;;;;;5120441;27;20028;-55
2021/01/30 13:17:40;;;;;;;0.10;0.10;;;;;;;;;;5114990;27;20042;-51
2021/01/30 13:20:06;;;;;;;0.00;0.00;;;;;;;;;;5116729;27;20478;-53
2021/01/30 13:22:34;;;;;;;0.70;0.32;;;;;;;;;;5112135;27;20108;-54
2021/01/30 13:25:01;;;;;;;0.00;0.00;;;;;;;;;;5116238;27;20496;-50
2021/01/30 13:27:27;;;;;;;5.15;0.93;;;;;;;;;;5116624;27;20016;-53
2021/01/30 13:29:53;;;;;;;0.15;0.00;;;;;;;;;;5116599;27;20067;-51
2021/01/30 13:32:19;;;;;;;0.25;0.17;;;;;;;;;;5116615;27;20027;-54
2021/01/30 13:34:45;;;;;;;0.28;0.28;;;;;;;;;;5113556;27;20027;-56
2021/01/30 13:37:11;;;;;;;0.28;0.28;;;;;;;;;;5114239;27;20508;-52
2021/01/30 13:39:37;;;;;;;3.00;1.17;;;;;;;;;;5126725;27;20031;-50
2021/01/30 13:42:03;;;;;;;1.10;0.30;;;;;;;;;;5119808;27;20122;-69
2021/01/30 13:44:31;;;;;;;0.00;0.00;;;;;;;;;;5127816;27;20023;-74
2021/01/30 13:46:57;;;;;;;0.00;0.00;;;;;;;;;;5127887;27;20065;-75
2021/01/30 13:49:24;;;;;;;1.40;0.30;;;;;;;;;;5128313;28;20031;-66
2021/01/30 13:51:50;;;;;;;0.20;0.20;;;;;;;;;;5127956;28;20048;-64
2021/01/30 13:54:16;;;;;;;0.63;0.10;;;;;;;;;;5118484;28;20035;-62
2021/01/30 13:56:42;;;;;;;0.30;0.30;;;;;;;;;;5118185;28;20019;-55
2021/01/30 13:59:09;;;;;;;0.80;0.10;;;;;;;;;;5115847;28;20035;-56
2021/01/30 14:01:38;;;;;;;0.00;0.00;;;;;;;;;;5113623;28;20038;-54
2021/01/30 14:04:04;;;;;;;0.00;0.00;;;;;;;;;;5127230;28;20027;-53
2021/01/30 14:06:30;;;;;;;0.00;0.00;;;;;;;;;;5128695;28;20034;-53
2021/01/30 14:08:57;;;;;;;0.00;0.00;;;;;;;;;;5127244;27;20067;-60
2021/01/30 14:11:23;;;;;;;1.27;0.00;;;;;;;;;;5130979;27;20050;-63
2021/01/30 14:13:49;;;;;;;0.00;0.00;;;;;;;;;;5130432;27;20020;-72
2021/01/30 14:16:15;;;;;;;0.00;0.00;;;;;;;;;;5135043;27;20035;-64
2021/01/30 14:18:41;;;;;;;0.00;0.00;;;;;;;;;;5133337;27;20031;-62
2021/01/30 14:21:07;;;;;;;0.17;0.00;;;;;;;;;;5131967;27;20102;-51
2021/01/30 14:23:33;;;;;;;1.25;0.45;;;;;;;;;;5131959;27;20114;-53
2021/01/30 14:25:59;;;;;;;0.28;0.00;;;;;;;;;;5132038;27;20076;-50
2021/01/30 14:28:25;;;;;;;0.00;0.00;;;;;;;;;;5133501;27;20023;-56
2021/01/30 14:30:52;;;;;;;0.00;0.00;;;;;;;;;;5134148;27;20027;-55
2021/01/30 14:33:19;;;;;;;0.00;0.00;;;;;;;;;;5131788;27;20054;-54
2021/01/30 14:35:46;;;;;;;0.05;0.00;;;;;;;;;;5131816;27;20059;-51
2021/01/30 14:38:12;;;;;;;0.00;0.00;;;;;;;;;;5132040;27;20027;-52
2021/01/30 14:40:41;;;;;;;0.00;0.00;;;;;;;;;;5131898;27;20015;-54
2021/01/30 14:43:07;;;;;;;0.00;0.00;;;;;;;;;;5134568;27;20054;-55
2021/01/30 14:45:33;;;;;;;0.00;0.00;;;;;;;;;;5132300;27;20031;-51
2021/01/30 14:47:59;;;;;;;0.00;0.00;;;;;;;;;;5129659;27;20008;-58
2021/01/30 14:50:25;;;;;;;0.32;0.00;;;;;;;;;;5130909;27;20552;-51
2021/01/30 14:52:52;;;;;;;3.08;2.80;;;;;;;;;;5131727;27;20107;-54
2021/01/30 14:55:18;;;;;;;0.00;0.00;;;;;;;;;;5133863;27;20038;-53
2021/01/30 14:57:44;;;;;;;0.00;0.00;;;;;;;;;;5134574;27;20042;-53
2021/01/30 15:00:12;;;;;;;0.00;0.00;;;;;;;;;;5130705;27;20047;-55
2021/01/30 15:02:38;;;;;;;0.00;0.00;;;;;;;;;;5130575;27;20047;-54
2021/01/30 15:05:05;;;;;;;2.10;0.47;;;;;;;;;;5131004;27;20761;-54
2021/01/30 15:07:31;;;;;;;0.00;0.00;;;;;;;;;;5132185;27;20027;-51
2021/01/30 15:09:57;;;;;;;0.00;0.00;;;;;;;;;;5134049;27;20111;-52
2021/01/30 15:12:23;;;;;;;0.00;0.00;;;;;;;;;;5131185;27;20059;-53
2021/01/30 15:14:49;;;;;;;2.30;0.57;;;;;;;;;;5131305;27;20025;-54
2021/01/30 15:17:17;;;;;;;0.00;0.00;;;;;;;;;;5130727;27;20030;-51
2021/01/30 15:19:43;;;;;;;0.10;0.00;;;;;;;;;;5132232;27;20035;-54
2021/01/30 15:22:09;;;;;;;0.00;0.00;;;;;;;;;;5133530;27;20023;-51
2021/01/30 15:24:35;;;;;;;0.00;0.00;;;;;;;;;;5131893;27;20035;-52
2021/01/30 15:27:01;;;;;;;0.00;0.00;;;;;;;;;;5131909;27;20023;-52
2021/01/30 15:29:27;;;;;;;0.00;0.00;;;;;;;;;;5130734;27;20043;-53
2021/01/30 15:31:54;;;;;;;0.00;0.00;;;;;;;;;;5130716;27;20397;-52
2021/01/30 15:34:21;;;;;;;0.00;0.00;;;;;;;;;;5104612;27;20458;-52
2021/01/30 15:36:47;;;;;;;1.17;0.63;;;;;;;;;;5121865;27;20566;-52
2021/01/30 15:39:14;;;;;;;0.00;0.00;;;;;;;;;;5121252;27;20076;-52
2021/01/30 15:41:41;;;;;;;0.00;0.00;;;;;;;;;;5130202;27;20165;-52
2021/01/30 15:44:07;;;;;;;0.00;0.00;;;;;;;;;;5127490;27;20102;-53
2021/01/30 15:46:33;;;;;;;0.00;0.00;;;;;;;;;;5129681;27;20062;-53
2021/01/30 15:49:00;;;;;;;0.00;0.00;;;;;;;;;;5122314;27;21177;-54
2021/01/30 15:51:26;;;;;;;0.00;0.00;;;;;;;;;;5118868;27;20462;-51
2021/01/30 15:53:52;;;;;;;1.95;0.43;;;;;;;;;;5118751;27;20023;-51
2021/01/30 15:56:18;;;;;;;0.00;0.00;;;;;;;;;;5122311;27;20056;-51
2021/01/30 15:58:44;;;;;;;0.00;0.00;;;;;;;;;;5123866;27;20023;-52
2021/01/30 16:01:11;;;;;;;0.00;0.00;;;;;;;;;;5116190;27;20048;-58
2021/01/30 16:03:37;;;;;;;0.00;0.00;;;;;;;;;;5116901;27;20102;-51
2021/01/30 16:06:03;;;;;;;0.00;0.00;;;;;;;;;;5123161;27;20436;-53
2021/01/30 16:08:29;;;;;;;0.00;0.00;;;;;;;;;;5122210;27;20104;-54
2021/01/30 16:10:55;;;;;;;0.00;0.00;;;;;;;;;;5101648;27;20445;-55
2021/01/30 16:13:21;;;;;;;0.22;0.22;;;;;;;;;;5107979;27;20028;-59
2021/01/30 16:15:47;;;;;;;0.52;0.52;;;;;;;;;;5124460;27;20022;-57
2021/01/30 16:18:13;;;;;;;0.00;0.00;;;;;;;;;;5116510;27;20498;-51
2021/01/30 16:20:40;;;;;;;0.35;0.10;;;;;;;;;;5120095;27;20047;-49
2021/01/30 16:23:06;;;;;;;0.00;0.00;;;;;;;;;;5119028;27;20016;-54
2021/01/30 16:25:33;;;;;;;0.08;0.08;;;;;;;;;;5120724;27;20023;-59
2021/01/30 16:27:59;;;;;;;0.00;0.00;;;;;;;;;;5118777;27;20036;-58
2021/01/30 16:30:25;;;;;;;0.00;0.00;;;;;;;;;;5119873;27;20042;-57
2021/01/30 16:32:52;;;;;;;0.00;0.00;;;;;;;;;;5121156;27;20392;-58
2021/01/30 16:35:19;;;;;;;0.00;0.00;;;;;;;;;;5121363;27;20068;-59
2021/01/30 16:37:46;;;;;;;0.13;0.13;;;;;;;;;;5120836;27;20111;-59
2021/01/30 16:40:13;;;;;;;0.00;0.00;;;;;;;;;;5125060;27;20549;-59
2021/01/30 16:42:39;;;;;;;0.00;0.00;;;;;;;;;;5125056;27;20030;-59
2021/01/30 16:45:06;;;;;;;0.00;0.00;;;;;;;;;;5122952;27;20309;-55
2021/01/30 16:47:33;;;;;;;0.57;0.57;;;;;;;;;;5121074;27;20035;-56
2021/01/30 16:49:59;;;;;;;0.10;0.10;;;;;;;;;;5123277;27;20507;-50
2021/01/30 16:52:25;;;;;;;0.00;0.00;;;;;;;;;;5120429;27;20173;-55
2021/01/30 16:54:52;;;;;;;0.10;0.10;;;;;;;;;;5124794;27;20554;-53
2021/01/30 16:57:18;;;;;;;0.20;0.20;;;;;;;;;;5122211;27;20400;-51
2021/01/30 16:59:44;;;;;;;0.00;0.00;;;;;;;;;;5122071;27;20068;-51
2021/01/30 17:02:10;;;;;;;0.00;0.00;;;;;;;;;;5123920;27;20476;-53
2021/01/30 17:04:36;;;;;;;0.05;0.05;;;;;;;;;;5123704;27;20062;-50
2021/01/30 17:07:02;;;;;;;1.75;1.20;;;;;;;;;;5117334;27;20023;-52
2021/01/30 17:09:28;;;;;;;0.00;0.00;;;;;;;;;;5120600;27;20035;-51
2021/01/30 17:11:54;;;;;;;0.00;0.00;;;;;;;;;;5124000;27;20472;-53
2021/01/30 17:14:21;;;;;;;0.10;0.10;;;;;;;;;;5120880;27;20518;-54
2021/01/30 17:16:49;;;;;;;0.10;0.10;;;;;;;;;;5122308;27;20062;-56
2021/01/30 17:19:16;;;;;;;1.38;0.13;;;;;;;;;;5102457;27;20027;-52
2021/01/30 17:21:42;;;;;;;0.00;0.00;;;;;;;;;;5124957;27;20058;-54
2021/01/30 17:24:10;;;;;;;0.10;0.10;;;;;;;;;;5122964;27;20563;-53
2021/01/30 17:26:36;;;;;;;0.00;0.00;;;;;;;;;;5124981;27;20110;-51
2021/01/30 17:29:02;;;;;;;0.00;0.00;;;;;;;;;;5125122;27;20069;-54
2021/01/30 17:31:28;;;;;;;0.80;0.80;;;;;;;;;;5127178;27;20492;-54
2021/01/30 17:33:54;;;;;;;0.30;0.30;;;;;;;;;;5127173;27;20030;-53
2021/01/30 17:36:20;;;;;;;0.00;0.00;;;;;;;;;;5126870;27;20015;-56
2021/01/30 17:38:47;;;;;;;0.00;0.00;;;;;;;;;;5124410;27;20104;-54
2021/01/30 17:41:13;;;;;;;0.00;0.00;;;;;;;;;;5123760;27;20035;-56
2021/01/30 17:43:39;;;;;;;0.00;0.00;;;;;;;;;;5126890;27;20557;-56
2021/01/30 17:46:07;;;;;;;0.00;0.00;;;;;;;;;;5127545;27;20028;-54
2021/01/30 17:48:34;;;;;;;0.00;0.00;;;;;;;;;;5117912;27;20043;-55
2021/01/30 17:51:00;;;;;;;0.00;0.00;;;;;;;;;;5120587;27;20096;-53
2021/01/30 17:53:26;;;;;;;0.00;0.00;;;;;;;;;;5123756;28;20023;-57
2021/01/30 17:55:52;;;;;;;0.00;0.00;;;;;;;;;;5128088;28;20032;-55
2021/01/30 17:58:18;;;;;;;0.00;0.00;;;;;;;;;;5124738;28;20049;-53
2021/01/30 18:00:45;;;;;;;0.00;0.00;;;;;;;;;;5128010;28;20424;-53
2021/01/30 18:03:13;;;;;;;0.00;0.00;;;;;;;;;;5125122;28;20027;-53
2021/01/30 18:05:42;;;;;;;0.00;0.00;;;;;;;;;;5122647;28;20439;-54
2021/01/30 18:08:10;;;;;;;0.00;0.00;;;;;;;;;;5125293;28;20049;-53
2021/01/30 18:10:36;;;;;;;1.40;1.08;;;;;;;;;;5110627;28;20480;-51
2021/01/30 18:13:04;;;;;;;0.00;0.00;;;;;;;;;;5127303;28;20420;-51
2021/01/30 18:15:31;;;;;;;0.00;0.00;;;;;;;;;;5116332;28;20024;-53
2021/01/30 18:17:57;;;;;;;0.00;0.00;;;;;;;;;;5116067;28;20039;-55
2021/01/30 18:20:25;;;;;;;0.00;0.00;;;;;;;;;;5116316;28;20047;-54
2021/01/30 18:22:51;;;;;;;0.00;0.00;;;;;;;;;;5113478;28;20115;-53
2021/01/30 18:25:19;;;;;;;0.00;0.00;;;;;;;;;;5127568;28;20440;-53
2021/01/30 18:27:45;;;;;;;0.00;0.00;;;;;;;;;;5128959;28;20487;-54
2021/01/30 18:30:12;;;;;;;0.20;0.20;;;;;;;;;;5128126;28;20490;-54
2021/01/30 18:32:38;;;;;;;0.00;0.00;;;;;;;;;;5128736;27;20480;-53
2021/01/30 18:35:04;;;;;;;0.08;0.08;;;;;;;;;;5127971;28;20020;-55
2021/01/30 18:37:30;;;;;;;0.00;0.00;;;;;;;;;;5128483;28;20024;-56
2021/01/30 18:39:56;;;;;;;0.00;0.00;;;;;;;;;;5131040;28;20034;-51
2021/01/30 18:42:22;;;;;;;0.00;0.00;;;;;;;;;;5127071;28;20077;-54
2021/01/30 18:44:49;;;;;;;0.00;0.00;;;;;;;;;;5129233;28;20446;-52
2021/01/30 18:47:15;;;;;;;0.57;0.52;;;;;;;;;;5128091;28;20513;-53
2021/01/30 18:49:41;;;;;;;0.17;0.08;;;;;;;;;;5129426;28;20062;-51
2021/01/30 18:52:07;;;;;;;0.10;0.10;;;;;;;;;;5131084;28;20114;-58
2021/01/30 18:54:33;;;;;;;0.43;0.43;;;;;;;;;;5129521;28;20104;-59
2021/01/30 18:56:59;;;;;;;0.00;0.00;;;;;;;;;;5128400;27;20033;-59
2021/01/30 18:59:25;;;;;;;0.00;0.00;;;;;;;;;;5131790;27;20062;-59
2021/01/30 19:01:52;;;;;;;3.60;0.73;;;;;;;;;;5131065;27;20035;-57
2021/01/30 19:04:18;;;;;;;0.10;0.10;;;;;;;;;;5127427;27;20023;-54
2021/01/30 19:06:44;;;;;;;0.00;0.00;;;;;;;;;;5126344;27;20059;-55
2021/01/30 19:09:10;;;;;;;0.47;0.47;;;;;;;;;;5125208;27;20515;-51
2021/01/30 19:11:37;;;;;;;0.00;0.00;;;;;;;;;;5123995;27;20035;-54
2021/01/30 19:14:04;;;;;;;0.00;0.00;;;;;;;;;;5127775;27;20027;-54
2021/01/30 19:16:31;;;;;;;0.20;0.20;;;;;;;;;;5124338;27;20031;-52
2021/01/30 19:18:57;;;;;;;0.00;0.00;;;;;;;;;;5127206;27;20067;-54
2021/01/30 19:21:24;;;;;;;0.00;0.00;;;;;;;;;;5127503;27;20038;-53
2021/01/30 19:23:50;;;;;;;0.00;0.00;;;;;;;;;;5123620;27;20103;-53
2021/01/30 19:26:16;;;;;;;0.60;0.30;;;;;;;;;;5127067;27;20392;-55
2021/01/30 19:28:43;;;;;;;0.00;0.00;;;;;;;;;;5119928;27;20028;-53
2021/01/30 19:31:09;;;;;;;0.00;0.00;;;;;;;;;;5129140;27;20091;-54
2021/01/30 19:33:35;;;;;;;0.00;0.00;;;;;;;;;;5123097;27;20106;-53
2021/01/30 19:36:02;;;;;;;0.00;0.00;;;;;;;;;;5124673;27;20506;-54
2021/01/30 19:38:28;;;;;;;0.00;0.00;;;;;;;;;;5125040;27;20096;-54
2021/01/30 19:40:55;;;;;;;0.10;0.10;;;;;;;;;;5109953;27;20015;-54
2021/01/30 19:43:24;;;;;;;0.00;0.00;;;;;;;;;;5127718;27;20545;-54
2021/01/30 19:45:51;;;;;;;0.00;0.00;;;;;;;;;;5122824;27;20035;-55
2021/01/30 19:48:17;;;;;;;1.00;0.32;;;;;;;;;;5122944;27;20021;-55
2021/01/30 19:50:43;;;;;;;0.03;0.03;;;;;;;;;;5124824;27;20091;-54
2021/01/30 19:53:11;;;;;;;0.00;0.00;;;;;;;;;;5121474;27;20022;-52
2021/01/30 19:55:37;;;;;;;0.52;0.38;;;;;;;;;;5110387;27;20019;-57
2021/01/30 19:58:05;;;;;;;0.00;0.00;;;;;;;;;;5125749;27;20023;-55
2021/01/30 20:00:31;;;;;;;0.00;0.00;;;;;;;;;;5103713;27;20050;-56
2021/01/30 20:02:57;;;;;;;1.13;0.75;;;;;;;;;;5103914;27;20023;-54
2021/01/30 20:05:26;;;;;;;0.13;0.13;;;;;;;;;;5125736;27;20044;-51
2021/01/30 20:07:53;;;;;;;0.00;0.00;;;;;;;;;;5126168;27;20488;-52
2021/01/30 20:10:20;;;;;;;0.57;0.57;;;;;;;;;;5121200;27;20031;-53
2021/01/30 20:12:47;;;;;;;0.10;0.10;;;;;;;;;;5125871;27;20031;-55
2021/01/30 20:15:14;;;;;;;0.10;0.10;;;;;;;;;;5121077;27;20578;-52
2021/01/30 20:17:40;;;;;;;0.03;0.03;;;;;;;;;;5121328;27;20023;-53
2021/01/30 20:20:07;;;;;;;0.55;0.55;;;;;;;;;;5116392;27;20031;-54
2021/01/30 20:22:33;;;;;;;0.30;0.30;;;;;;;;;;5117221;27;20027;-58
2021/01/30 20:24:59;;;;;;;0.50;0.38;;;;;;;;;;5139197;27;20113;-53
2021/01/30 20:27:26;;;;;;;11.57;3.80;;;;;;;;;;5102076;27;20399;-51
2021/01/30 20:29:53;;;;;;;0.55;0.55;;;;;;;;;;5120331;27;20031;-53
2021/01/30 20:32:19;;;;;;;1.42;0.55;;;;;;;;;;5125021;27;20484;-54
2021/01/30 20:34:47;;;;;;;1.65;1.08;;;;;;;;;;5122384;27;20066;-52
2021/01/30 20:37:13;;;;;;;2.28;0.45;;;;;;;;;;5125150;27;20019;-55
2021/01/30 20:39:39;;;;;;;0.38;0.28;;;;;;;;;;5110261;27;20271;-54
2021/01/30 20:42:05;;;;;;;0.68;0.30;;;;;;;;;;5122556;27;20027;-54
2021/01/30 20:44:31;;;;;;;0.30;0.30;;;;;;;;;;5122592;27;20126;-55
2021/01/30 20:46:59;;;;;;;1.23;1.13;;;;;;;;;;5123465;27;20549;-51
2021/01/30 20:49:25;;;;;;;0.45;0.45;;;;;;;;;;5121452;27;20027;-53
2021/01/30 20:51:52;;;;;;;0.22;0.20;;;;;;;;;;5122181;27;20052;-54
2021/01/30 20:54:18;;;;;;;0.88;0.52;;;;;;;;;;5123415;27;20076;-50